Baie-Sainte-Catherine, Canada
Current Conditions -  °F | °C
As of 12:00 PM on Thursday 30 Oct 2014 (Local Time) from CYBG Reporting Station
Overcast Overcast  
Wind Chill: 35°   Ceiling: 2000
Heat Index: 43°   Visibility: 25mi
Dew Point: 32°   Wind: 17mph
Humidity: 66%   Direction: 280°W
Pressure: 29.86"   Gusts: NA
Location:  48.1°N, 69.73°W
Report Text: CYBG 301600Z 28015KT 25SM BKN020 OVC063 06/M00 A2986 RMK SC6SC2 SLP119
Loading
Personal Weather Stations






























Interactive Weather Map
Tropical Storm Tracking
New forecast layout! Learn more

10-Day Weather Forecast

Advertisements
Track Severe Weather on mobile